sensor_id;sensor_type;location;lat;lon;timestamp;pressure;altitude;pressure_sealevel;temperature;humidity
31346;BME280;21711;49.708;18.568;2023-08-12T00:02:16;98001.63;;;13.57;100.00
31346;BME280;21711;49.708;18.568;2023-08-12T00:04:46;98000.03;;;13.56;100.00
31346;BME280;21711;49.708;18.568;2023-08-12T00:07:14;98007.72;;;13.52;100.00
31346;BME280;21711;49.708;18.568;2023-08-12T00:09:41;98005.06;;;13.52;100.00
31346;BME280;21711;49.708;18.568;2023-08-12T00:12:09;98005.38;;;13.50;100.00
31346;BME280;21711;49.708;18.568;2023-08-12T00:14:36;98000.84;;;13.46;100.00
31346;BME280;21711;49.708;18.568;2023-08-12T00:17:03;97998.44;;;13.49;100.00
31346;BME280;21711;49.708;18.568;2023-08-12T00:19:31;97999.53;;;13.48;100.00
31346;BME280;21711;49.708;18.568;2023-08-12T00:21:58;98000.31;;;13.49;100.00
31346;BME280;21711;49.708;18.568;2023-08-12T00:24:25;97993.44;;;13.48;100.00
31346;BME280;21711;49.708;18.568;2023-08-12T00:26:53;97995.00;;;13.44;100.00
31346;BME280;21711;49.708;18.568;2023-08-12T00:29:22;97987.59;;;13.40;100.00
31346;BME280;21711;49.708;18.568;2023-08-12T00:31:50;97985.72;;;13.41;100.00
31346;BME280;21711;49.708;18.568;2023-08-12T00:34:17;97986.03;;;13.34;100.00
31346;BME280;21711;49.708;18.568;2023-08-12T00:36:45;97993.69;;;13.41;100.00
31346;BME280;21711;49.708;18.568;2023-08-12T00:39:12;97987.31;;;13.42;100.00
31346;BME280;21711;49.708;18.568;2023-08-12T00:41:40;97978.56;;;13.36;100.00
31346;BME280;21711;49.708;18.568;2023-08-12T00:44:07;97975.66;;;13.33;100.00
31346;BME280;21711;49.708;18.568;2023-08-12T00:46:36;97975.97;;;13.26;100.00
31346;BME280;21711;49.708;18.568;2023-08-12T00:49:05;97975.97;;;13.26;100.00
31346;BME280;21711;49.708;18.568;2023-08-12T00:51:32;97976.75;;;13.32;100.00
31346;BME280;21711;49.708;18.568;2023-08-12T00:54:04;97979.13;;;13.33;100.00
31346;BME280;21711;49.708;18.568;2023-08-12T00:56:32;97980.47;;;13.25;100.00
31346;BME280;21711;49.708;18.568;2023-08-12T00:59:02;97983.94;;;13.21;100.00
31346;BME280;21711;49.708;18.568;2023-08-12T01:01:31;97983.16;;;13.20;100.00
31346;BME280;21711;49.708;18.568;2023-08-12T01:03:59;97976.25;;;13.19;100.00
31346;BME280;21711;49.708;18.568;2023-08-12T01:06:27;97982.09;;;13.16;100.00
31346;BME280;21711;49.708;18.568;2023-08-12T01:08:54;97980.75;;;13.19;100.00
31346;BME280;21711;49.708;18.568;2023-08-12T01:11:55;97975.19;;;13.15;100.00
31346;BME280;21711;49.708;18.568;2023-08-12T01:17:26;97971.50;;;13.11;100.00
31346;BME280;21711;49.708;18.568;2023-08-12T01:19:57;97968.06;;;13.10;100.00
31346;BME280;21711;49.708;18.568;2023-08-12T01:22:26;97971.53;;;13.06;100.00
31346;BME280;21711;49.708;18.568;2023-08-12T01:24:55;97971.28;;;13.02;100.00
31346;BME280;21711;49.708;18.568;2023-08-12T01:27:22;97970.47;;;13.01;100.00
31346;BME280;21711;49.708;18.568;2023-08-12T01:29:51;97975.25;;;12.99;100.00
31346;BME280;21711;49.708;18.568;2023-08-12T01:35:35;97978.72;;;13.00;100.00
31346;BME280;21711;49.708;18.568;2023-08-12T01:38:07;97980.84;;;12.98;100.00
31346;BME280;21711;49.708;18.568;2023-08-12T01:40:36;97984.31;;;12.98;100.00
31346;BME280;21711;49.708;18.568;2023-08-12T01:43:05;97978.72;;;12.89;100.00
31346;BME280;21711;49.708;18.568;2023-08-12T01:45:35;97977.41;;;12.87;100.00
31346;BME280;21711;49.708;18.568;2023-08-12T01:48:03;97975.03;;;12.80;100.00
31346;BME280;21711;49.708;18.568;2023-08-12T01:50:31;97986.72;;;12.84;100.00
31346;BME280;21711;49.708;18.568;2023-08-12T01:52:58;97990.19;;;12.80;100.00
31346;BME280;21711;49.708;18.568;2023-08-12T01:55:26;97988.59;;;12.79;100.00
31346;BME280;21711;49.708;18.568;2023-08-12T01:57:55;97990.47;;;12.73;100.00
31346;BME280;21711;49.708;18.568;2023-08-12T02:00:22;97985.44;;;12.71;100.00
31346;BME280;21711;49.708;18.568;2023-08-12T02:02:50;97994.97;;;12.72;100.00
31346;BME280;21711;49.708;18.568;2023-08-12T02:05:17;97989.91;;;12.71;100.00
31346;BME280;21711;49.708;18.568;2023-08-12T02:07:44;97990.72;;;12.71;100.00
31346;BME280;21711;49.708;18.568;2023-08-12T02:10:12;97991.00;;;12.70;100.00
31346;BME280;21711;49.708;18.568;2023-08-12T02:12:41;97986.25;;;12.67;100.00
31346;BME280;21711;49.708;18.568;2023-08-12T02:15:09;97990.75;;;12.66;100.00
31346;BME280;21711;49.708;18.568;2023-08-12T02:17:37;97995.53;;;12.64;100.00
31346;BME280;21711;49.708;18.568;2023-08-12T02:20:05;97998.69;;;12.66;100.00
31346;BME280;21711;49.708;18.568;2023-08-12T02:22:33;97997.13;;;12.65;100.00
31346;BME280;21711;49.708;18.568;2023-08-12T02:25:01;98000.03;;;12.63;100.00
31346;BME280;21711;49.708;18.568;2023-08-12T02:27:28;98009.06;;;12.62;100.00
31346;BME280;21711;49.708;18.568;2023-08-12T02:29:55;98002.94;;;12.62;100.00
31346;BME280;21711;49.708;18.568;2023-08-12T02:32:23;97991.00;;;12.65;100.00
31346;BME280;21711;49.708;18.568;2023-08-12T02:34:50;97999.50;;;12.67;100.00
31346;BME280;21711;49.708;18.568;2023-08-12T02:37:17;97994.72;;;12.63;100.00
31346;BME280;21711;49.708;18.568;2023-08-12T02:39:45;97990.50;;;12.62;100.00
31346;BME280;21711;49.708;18.568;2023-08-12T02:42:13;97996.56;;;12.63;100.00
31346;BME280;21711;49.708;18.568;2023-08-12T02:44:40;98003.22;;;12.60;100.00
31346;BME280;21711;49.708;18.568;2023-08-12T02:47:07;97988.88;;;12.56;100.00
31346;BME280;21711;49.708;18.568;2023-08-12T02:49:35;97997.41;;;12.53;100.00
31346;BME280;21711;49.708;18.568;2023-08-12T02:52:03;97997.91;;;12.50;100.00
31346;BME280;21711;49.708;18.568;2023-08-12T02:54:30;98005.06;;;12.49;100.00
31346;BME280;21711;49.708;18.568;2023-08-12T02:56:57;97999.78;;;12.55;100.00
31346;BME280;21711;49.708;18.568;2023-08-12T02:59:25;97991.28;;;12.58;100.00
31346;BME280;21711;49.708;18.568;2023-08-12T03:01:52;97992.88;;;12.64;100.00
31346;BME280;21711;49.708;18.568;2023-08-12T03:04:20;98001.13;;;12.57;100.00
31346;BME280;21711;49.708;18.568;2023-08-12T03:06:47;97989.97;;;12.55;100.00
31346;BME280;21711;49.708;18.568;2023-08-12T03:09:15;97999.25;;;12.47;100.00
31346;BME280;21711;49.708;18.568;2023-08-12T03:11:44;97994.75;;;12.48;100.00
31346;BME280;21711;49.708;18.568;2023-08-12T03:14:12;97994.22;;;12.46;100.00
31346;BME280;21711;49.708;18.568;2023-08-12T03:16:39;97992.63;;;12.50;100.00
31346;BME280;21711;49.708;18.568;2023-08-12T03:19:07;97992.38;;;12.41;100.00
31346;BME280;21711;49.708;18.568;2023-08-12T03:21:34;97989.16;;;12.44;100.00
31346;BME280;21711;49.708;18.568;2023-08-12T03:24:03;97984.41;;;12.46;100.00
31346;BME280;21711;49.708;18.568;2023-08-12T03:26:31;97988.38;;;12.54;100.00
31346;BME280;21711;49.708;18.568;2023-08-12T03:28:58;97991.53;;;12.51;100.00
31346;BME280;21711;49.708;18.568;2023-08-12T03:31:27;97997.91;;;12.50;100.00
31346;BME280;21711;49.708;18.568;2023-08-12T03:33:54;97989.97;;;12.50;100.00
31346;BME280;21711;49.708;18.568;2023-08-12T03:36:22;97996.59;;;12.47;100.00
31346;BME280;21711;49.708;18.568;2023-08-12T03:38:49;97994.47;;;12.49;100.00
31346;BME280;21711;49.708;18.568;2023-08-12T03:41:21;97995.00;;;12.52;100.00
31346;BME280;21711;49.708;18.568;2023-08-12T03:43:50;97996.31;;;12.54;100.00
31346;BME280;21711;49.708;18.568;2023-08-12T03:46:18;97993.41;;;12.61;100.00
31346;BME280;21711;49.708;18.568;2023-08-12T03:48:46;97992.31;;;12.67;100.00
31346;BME280;21711;49.708;18.568;2023-08-12T03:51:13;97991.78;;;12.81;100.00
31346;BME280;21711;49.708;18.568;2023-08-12T03:53:40;98000.53;;;12.86;100.00
31346;BME280;21711;49.708;18.568;2023-08-12T03:56:08;97992.25;;;13.04;100.00
31346;BME280;21711;49.708;18.568;2023-08-12T03:58:35;97993.53;;;13.17;100.00
31346;BME280;21711;49.708;18.568;2023-08-12T04:01:03;97997.47;;;13.24;100.00
31346;BME280;21711;49.708;18.568;2023-08-12T04:03:30;97989.16;;;13.41;100.00
31346;BME280;21711;49.708;18.568;2023-08-12T04:05:57;97999.50;;;13.53;100.00
31346;BME280;21711;49.708;18.568;2023-08-12T04:08:25;97988.22;;;13.72;100.00
31346;BME280;21711;49.708;18.568;2023-08-12T04:10:52;97989.66;;;13.99;100.00
31346;BME280;21711;49.708;18.568;2023-08-12T04:13:20;97992.59;;;14.32;100.00
31346;BME280;21711;49.708;18.568;2023-08-12T04:15:51;97992.88;;;14.60;100.00
31346;BME280;21711;49.708;18.568;2023-08-12T04:18:20;97991.19;;;14.99;100.00
31346;BME280;21711;49.708;18.568;2023-08-12T04:20:50;97991.56;;;15.12;100.00
31346;BME280;21711;49.708;18.568;2023-08-12T04:23:18;97994.84;;;15.28;100.00
31346;BME280;21711;49.708;18.568;2023-08-12T04:25:47;97999.41;;;15.47;100.00
31346;BME280;21711;49.708;18.568;2023-08-12T04:28:16;97995.25;;;15.79;100.00
31346;BME280;21711;49.708;18.568;2023-08-12T04:30:46;97998.84;;;15.88;100.00
31346;BME280;21711;49.708;18.568;2023-08-12T04:33:15;97992.50;;;16.23;100.00
31346;BME280;21711;49.708;18.568;2023-08-12T04:35:43;97988.59;;;16.48;100.00
31346;BME280;21711;49.708;18.568;2023-08-12T04:38:11;97996.50;;;17.15;100.00
31346;BME280;21711;49.708;18.568;2023-08-12T04:40:40;98006.44;;;17.51;100.00
31346;BME280;21711;49.708;18.568;2023-08-12T04:43:09;98000.13;;;17.84;100.00
31346;BME280;21711;49.708;18.568;2023-08-12T04:45:37;98005.13;;;18.13;100.00
31346;BME280;21711;49.708;18.568;2023-08-12T04:48:06;98002.59;;;18.40;100.00
31346;BME280;21711;49.708;18.568;2023-08-12T04:50:36;97997.69;;;18.33;100.00
31346;BME280;21711;49.708;18.568;2023-08-12T04:53:03;97994.78;;;18.52;100.00
31346;BME280;21711;49.708;18.568;2023-08-12T04:55:34;97996.28;;;18.67;100.00
31346;BME280;21711;49.708;18.568;2023-08-12T04:58:03;98001.09;;;19.20;100.00
31346;BME280;21711;49.708;18.568;2023-08-12T05:00:31;97998.78;;;19.80;100.00
31346;BME280;21711;49.708;18.568;2023-08-12T05:02:59;98001.78;;;20.05;100.00
31346;BME280;21711;49.708;18.568;2023-08-12T05:05:27;98001.13;;;20.44;100.00
31346;BME280;21711;49.708;18.568;2023-08-12T05:07:54;98008.28;;;20.04;100.00
31346;BME280;21711;49.708;18.568;2023-08-12T05:10:22;98008.09;;;19.92;100.00
31346;BME280;21711;49.708;18.568;2023-08-12T05:12:50;98006.69;;;19.94;100.00
31346;BME280;21711;49.708;18.568;2023-08-12T05:15:20;98000.19;;;20.31;100.00
31346;BME280;21711;49.708;18.568;2023-08-12T05:17:48;97998.53;;;20.65;100.00
31346;BME280;21711;49.708;18.568;2023-08-12T05:20:19;98006.81;;;21.50;100.00
31346;BME280;21711;49.708;18.568;2023-08-12T05:22:46;98007.69;;;22.06;100.00
31346;BME280;21711;49.708;18.568;2023-08-12T05:25:14;98002.03;;;22.54;100.00
31346;BME280;21711;49.708;18.568;2023-08-12T05:27:42;98008.56;;;23.28;92.41
31346;BME280;21711;49.708;18.568;2023-08-12T05:30:09;98009.03;;;23.42;70.45
31346;BME280;21711;49.708;18.568;2023-08-12T05:32:37;98009.47;;;23.44;70.66
31346;BME280;21711;49.708;18.568;2023-08-12T05:35:05;98009.00;;;23.55;68.27
31346;BME280;21711;49.708;18.568;2023-08-12T05:37:32;98012.00;;;24.07;67.67
31346;BME280;21711;49.708;18.568;2023-08-12T05:39:59;98022.41;;;25.14;62.63
31346;BME280;21711;49.708;18.568;2023-08-12T05:42:27;98022.47;;;25.33;58.88
31346;BME280;21711;49.708;18.568;2023-08-12T05:44:54;98014.50;;;25.77;58.53
31346;BME280;21711;49.708;18.568;2023-08-12T05:47:21;98006.44;;;25.60;56.83
31346;BME280;21711;49.708;18.568;2023-08-12T05:49:49;98014.75;;;25.52;59.09
31346;BME280;21711;49.708;18.568;2023-08-12T05:52:16;98009.56;;;25.27;59.62
31346;BME280;21711;49.708;18.568;2023-08-12T05:54:43;98012.72;;;25.13;59.57
31346;BME280;21711;49.708;18.568;2023-08-12T05:57:10;98008.41;;;25.44;58.74
31346;BME280;21711;49.708;18.568;2023-08-12T05:59:38;98010.53;;;25.70;56.77
31346;BME280;21711;49.708;18.568;2023-08-12T06:02:05;98008.88;;;26.25;56.88
31346;BME280;21711;49.708;18.568;2023-08-12T06:04:33;98018.16;;;26.71;55.54
31346;BME280;21711;49.708;18.568;2023-08-12T06:07:00;98022.34;;;26.88;51.48
31346;BME280;21711;49.708;18.568;2023-08-12T06:09:28;98018.25;;;26.98;53.14
31346;BME280;21711;49.708;18.568;2023-08-12T06:11:55;98020.22;;;27.01;52.99
31346;BME280;21711;49.708;18.568;2023-08-12T06:14:22;98020.47;;;27.73;51.02
31346;BME280;21711;49.708;18.568;2023-08-12T06:16:49;98023.16;;;28.38;49.37
31346;BME280;21711;49.708;18.568;2023-08-12T06:19:17;98024.56;;;28.25;49.39
31346;BME280;21711;49.708;18.568;2023-08-12T06:21:44;98030.28;;;29.59;47.38
31346;BME280;21711;49.708;18.568;2023-08-12T06:24:11;98012.59;;;30.12;42.64
31346;BME280;21711;49.708;18.568;2023-08-12T06:26:39;98025.13;;;31.01;42.79
31346;BME280;21711;49.708;18.568;2023-08-12T06:29:06;98026.28;;;30.38;42.31
31346;BME280;21711;49.708;18.568;2023-08-12T06:31:33;98030.56;;;31.15;42.62
31346;BME280;21711;49.708;18.568;2023-08-12T06:34:01;98023.53;;;31.47;38.82
31346;BME280;21711;49.708;18.568;2023-08-12T06:36:28;98014.97;;;31.27;40.70
31346;BME280;21711;49.708;18.568;2023-08-12T06:38:55;98021.13;;;31.60;39.45
31346;BME280;21711;49.708;18.568;2023-08-12T06:41:23;98014.38;;;31.90;39.20
31346;BME280;21711;49.708;18.568;2023-08-12T06:43:51;98021.81;;;33.06;38.07
31346;BME280;21711;49.708;18.568;2023-08-12T06:46:18;98022.06;;;33.58;37.37
31346;BME280;21711;49.708;18.568;2023-08-12T06:48:46;98019.81;;;33.45;35.38
31346;BME280;21711;49.708;18.568;2023-08-12T06:51:13;98019.06;;;33.80;34.58
31346;BME280;21711;49.708;18.568;2023-08-12T06:53:40;98009.78;;;33.35;34.51
31346;BME280;21711;49.708;18.568;2023-08-12T06:56:08;98014.31;;;33.84;35.45
31346;BME280;21711;49.708;18.568;2023-08-12T06:58:35;98007.22;;;33.55;35.46
31346;BME280;21711;49.708;18.568;2023-08-12T07:01:03;98011.53;;;34.43;33.78
31346;BME280;21711;49.708;18.568;2023-08-12T07:03:30;98015.72;;;35.23;32.55
31346;BME280;21711;49.708;18.568;2023-08-12T07:05:57;98009.50;;;34.23;34.25
31346;BME280;21711;49.708;18.568;2023-08-12T07:08:25;98015.41;;;35.41;32.39
31346;BME280;21711;49.708;18.568;2023-08-12T07:10:54;98018.94;;;36.19;30.89
31346;BME280;21711;49.708;18.568;2023-08-12T07:13:21;98008.03;;;36.49;29.89
31346;BME280;21711;49.708;18.568;2023-08-12T07:15:48;98005.47;;;35.67;31.93
31346;BME280;21711;49.708;18.568;2023-08-12T07:18:16;98013.16;;;36.80;30.63
31346;BME280;21711;49.708;18.568;2023-08-12T07:20:43;98018.50;;;36.87;28.98
31346;BME280;21711;49.708;18.568;2023-08-12T07:23:10;98007.06;;;36.55;28.29
31346;BME280;21711;49.708;18.568;2023-08-12T07:25:38;98012.69;;;37.15;29.97
31346;BME280;21711;49.708;18.568;2023-08-12T07:28:06;98007.59;;;37.13;29.39
31346;BME280;21711;49.708;18.568;2023-08-12T07:30:36;98002.34;;;36.39;30.55
31346;BME280;21711;49.708;18.568;2023-08-12T07:33:04;97997.16;;;35.88;29.79
31346;BME280;21711;49.708;18.568;2023-08-12T07:35:32;98003.63;;;36.51;30.18
31346;BME280;21711;49.708;18.568;2023-08-12T07:38:00;98001.03;;;36.61;28.85
31346;BME280;21711;49.708;18.568;2023-08-12T07:40:27;97995.00;;;36.82;29.08
31346;BME280;21711;49.708;18.568;2023-08-12T07:42:54;97998.13;;;37.14;28.12
31346;BME280;21711;49.708;18.568;2023-08-12T07:45:22;98006.19;;;37.51;27.32
31346;BME280;21711;49.708;18.568;2023-08-12T07:47:50;98000.72;;;37.64;28.16
31346;BME280;21711;49.708;18.568;2023-08-12T07:50:18;97997.56;;;37.49;28.10
31346;BME280;21711;49.708;18.568;2023-08-12T07:52:45;97997.53;;;38.44;27.63
31346;BME280;21711;49.708;18.568;2023-08-12T07:55:13;97996.38;;;39.47;25.21
31346;BME280;21711;49.708;18.568;2023-08-12T07:57:41;97995.91;;;38.82;27.39
31346;BME280;21711;49.708;18.568;2023-08-12T08:00:09;97992.06;;;39.46;23.46
31346;BME280;21711;49.708;18.568;2023-08-12T08:02:37;97989.00;;;38.64;24.04
31346;BME280;21711;49.708;18.568;2023-08-12T08:05:05;97988.63;;;39.87;23.99
31346;BME280;21711;49.708;18.568;2023-08-12T08:07:33;97989.63;;;40.02;23.38
31346;BME280;21711;49.708;18.568;2023-08-12T08:10:00;97988.31;;;40.35;24.00
31346;BME280;21711;49.708;18.568;2023-08-12T08:12:27;97984.41;;;41.01;22.97
31346;BME280;21711;49.708;18.568;2023-08-12T08:14:55;97986.38;;;40.45;22.44
31346;BME280;21711;49.708;18.568;2023-08-12T08:17:22;97982.16;;;40.31;23.89
31346;BME280;21711;49.708;18.568;2023-08-12T08:19:50;97981.34;;;40.90;23.15
31346;BME280;21711;49.708;18.568;2023-08-12T08:22:17;97986.88;;;41.80;23.67
31346;BME280;21711;49.708;18.568;2023-08-12T08:24:45;97986.22;;;41.95;22.04
31346;BME280;21711;49.708;18.568;2023-08-12T08:27:12;97981.69;;;41.63;21.59
31346;BME280;21711;49.708;18.568;2023-08-12T08:29:40;97982.69;;;41.13;21.86
31346;BME280;21711;49.708;18.568;2023-08-12T08:32:08;97982.75;;;41.75;23.02
31346;BME280;21711;49.708;18.568;2023-08-12T08:34:36;97974.72;;;41.68;22.75
31346;BME280;21711;49.708;18.568;2023-08-12T08:37:03;97973.78;;;40.62;21.78
31346;BME280;21711;49.708;18.568;2023-08-12T08:39:32;97981.59;;;42.25;22.65
31346;BME280;21711;49.708;18.568;2023-08-12T08:41:59;97980.53;;;42.13;23.06
31346;BME280;21711;49.708;18.568;2023-08-12T08:44:29;97971.59;;;41.85;23.53
31346;BME280;21711;49.708;18.568;2023-08-12T08:47:01;97971.69;;;42.00;21.41
31346;BME280;21711;49.708;18.568;2023-08-12T08:49:30;97971.63;;;41.75;22.57
31346;BME280;21711;49.708;18.568;2023-08-12T08:51:59;97977.63;;;41.83;22.28
31346;BME280;21711;49.708;18.568;2023-08-12T08:54:27;97987.72;;;42.29;23.11
31346;BME280;21711;49.708;18.568;2023-08-12T08:56:55;97978.25;;;42.85;23.12
31346;BME280;21711;49.708;18.568;2023-08-12T08:59:28;97975.91;;;43.53;22.09
31346;BME280;21711;49.708;18.568;2023-08-12T09:01:56;97979.81;;;43.76;20.57
31346;BME280;21711;49.708;18.568;2023-08-12T09:04:26;97974.38;;;42.43;21.75
31346;BME280;21711;49.708;18.568;2023-08-12T09:06:54;97973.25;;;42.50;22.49
31346;BME280;21711;49.708;18.568;2023-08-12T09:09:22;97968.06;;;42.42;22.27
31346;BME280;21711;49.708;18.568;2023-08-12T09:11:52;97966.53;;;42.81;22.17
31346;BME280;21711;49.708;18.568;2023-08-12T09:14:20;97969.19;;;43.15;21.39
31346;BME280;21711;49.708;18.568;2023-08-12T09:16:47;97960.75;;;43.24;21.34
31346;BME280;21711;49.708;18.568;2023-08-12T09:19:15;97953.50;;;42.48;22.61
31346;BME280;21711;49.708;18.568;2023-08-12T09:21:42;97965.75;;;42.16;22.80
31346;BME280;21711;49.708;18.568;2023-08-12T09:24:10;97958.41;;;41.61;22.32
31346;BME280;21711;49.708;18.568;2023-08-12T09:26:37;97954.66;;;41.21;24.64
31346;BME280;21711;49.708;18.568;2023-08-12T09:29:04;97955.44;;;41.74;22.97
31346;BME280;21711;49.708;18.568;2023-08-12T09:31:32;97955.00;;;41.04;24.29
31346;BME280;21711;49.708;18.568;2023-08-12T09:34:04;97947.88;;;40.37;23.10
31346;BME280;21711;49.708;18.568;2023-08-12T09:36:34;97940.84;;;39.54;24.86
31346;BME280;21711;49.708;18.568;2023-08-12T09:39:07;97944.44;;;39.42;25.21
31346;BME280;21711;49.708;18.568;2023-08-12T09:41:38;97947.44;;;40.76;23.87
31346;BME280;21711;49.708;18.568;2023-08-12T09:44:06;97947.91;;;41.65;23.25
31346;BME280;21711;49.708;18.568;2023-08-12T09:46:34;97942.66;;;40.49;24.46
31346;BME280;21711;49.708;18.568;2023-08-12T09:49:01;97943.09;;;41.32;23.14
31346;BME280;21711;49.708;18.568;2023-08-12T09:51:36;97942.44;;;40.15;24.64
31346;BME280;21711;49.708;18.568;2023-08-12T09:54:04;97940.13;;;41.45;24.73
31346;BME280;21711;49.708;18.568;2023-08-12T09:56:36;97944.22;;;42.02;21.37
31346;BME280;21711;49.708;18.568;2023-08-12T09:59:06;97938.00;;;41.83;23.44
31346;BME280;21711;49.708;18.568;2023-08-12T10:01:36;97933.81;;;41.44;23.14
31346;BME280;21711;49.708;18.568;2023-08-12T10:04:06;97933.47;;;41.51;23.99
31346;BME280;21711;49.708;18.568;2023-08-12T10:06:40;97928.75;;;41.43;24.52
31346;BME280;21711;49.708;18.568;2023-08-12T10:09:08;97936.34;;;42.74;23.88
31346;BME280;21711;49.708;18.568;2023-08-12T10:11:37;97926.66;;;42.69;23.16
31346;BME280;21711;49.708;18.568;2023-08-12T10:14:05;97917.44;;;42.14;23.68
31346;BME280;21711;49.708;18.568;2023-08-12T10:16:33;97922.31;;;42.04;24.63
31346;BME280;21711;49.708;18.568;2023-08-12T10:19:04;97916.81;;;42.19;24.35
31346;BME280;21711;49.708;18.568;2023-08-12T10:21:33;97919.53;;;42.04;22.26
31346;BME280;21711;49.708;18.568;2023-08-12T10:24:01;97913.13;;;41.54;23.75
31346;BME280;21711;49.708;18.568;2023-08-12T10:26:30;97914.16;;;41.66;24.15
31346;BME280;21711;49.708;18.568;2023-08-12T10:29:00;97906.88;;;41.26;24.10
31346;BME280;21711;49.708;18.568;2023-08-12T10:31:28;97901.59;;;40.85;23.98
31346;BME280;21711;49.708;18.568;2023-08-12T10:33:57;97899.84;;;40.31;24.41
31346;BME280;21711;49.708;18.568;2023-08-12T10:36:28;97900.44;;;39.03;26.06
31346;BME280;21711;49.708;18.568;2023-08-12T10:38:56;97898.72;;;39.50;27.80
31346;BME280;21711;49.708;18.568;2023-08-12T10:41:25;97896.13;;;39.97;25.18
31346;BME280;21711;49.708;18.568;2023-08-12T10:44:01;97890.44;;;40.01;24.69
31346;BME280;21711;49.708;18.568;2023-08-12T10:46:33;97887.44;;;39.44;25.94
31346;BME280;21711;49.708;18.568;2023-08-12T10:49:09;97885.47;;;39.13;27.34
31346;BME280;21711;49.708;18.568;2023-08-12T10:51:53;97880.19;;;38.84;28.42
31346;BME280;21711;49.708;18.568;2023-08-12T10:54:27;97886.34;;;38.88;26.97
31346;BME280;21711;49.708;18.568;2023-08-12T11:02:32;97879.31;;;37.25;27.38
31346;BME280;21711;49.708;18.568;2023-08-12T11:05:03;97874.50;;;37.55;28.42
31346;BME280;21711;49.708;18.568;2023-08-12T11:07:59;97872.00;;;37.74;29.48
31346;BME280;21711;49.708;18.568;2023-08-12T11:10:34;97868.53;;;37.57;31.38
31346;BME280;21711;49.708;18.568;2023-08-12T11:13:03;97867.00;;;37.30;29.97
31346;BME280;21711;49.708;18.568;2023-08-12T11:18:03;97861.25;;;37.24;28.98
31346;BME280;21711;49.708;18.568;2023-08-12T11:20:32;97853.53;;;37.45;28.89
31346;BME280;21711;49.708;18.568;2023-08-12T11:23:02;97858.06;;;37.26;31.08
31346;BME280;21711;49.708;18.568;2023-08-12T11:25:31;97859.41;;;37.34;29.46
31346;BME280;21711;49.708;18.568;2023-08-12T11:27:59;97851.28;;;37.01;30.26
31346;BME280;21711;49.708;18.568;2023-08-12T11:30:27;97850.66;;;36.80;32.00
31346;BME280;21711;49.708;18.568;2023-08-12T11:32:59;97848.44;;;36.75;31.66
31346;BME280;21711;49.708;18.568;2023-08-12T11:35:27;97849.22;;;36.75;31.19
31346;BME280;21711;49.708;18.568;2023-08-12T11:37:58;97847.97;;;36.93;29.96
31346;BME280;21711;49.708;18.568;2023-08-12T11:40:27;97840.72;;;36.69;31.25
31346;BME280;21711;49.708;18.568;2023-08-12T11:42:56;97840.56;;;36.60;30.99
31346;BME280;21711;49.708;18.568;2023-08-12T11:45:26;97831.81;;;35.69;31.28
31346;BME280;21711;49.708;18.568;2023-08-12T11:47:55;97825.31;;;35.42;33.47
31346;BME280;21711;49.708;18.568;2023-08-12T11:50:25;97814.69;;;34.87;31.87
31346;BME280;21711;49.708;18.568;2023-08-12T11:52:55;97815.63;;;34.81;34.22
31346;BME280;21711;49.708;18.568;2023-08-12T11:55:23;97816.19;;;34.28;33.57
31346;BME280;21711;49.708;18.568;2023-08-12T11:57:51;97813.66;;;34.17;37.61
31346;BME280;21711;49.708;18.568;2023-08-12T12:00:20;97810.06;;;33.96;37.06
31346;BME280;21711;49.708;18.568;2023-08-12T12:02:53;97803.38;;;33.73;34.58
31346;BME280;21711;49.708;18.568;2023-08-12T12:05:28;97797.00;;;32.93;35.41
31346;BME280;21711;49.708;18.568;2023-08-12T12:07:58;97798.75;;;32.76;38.38
31346;BME280;21711;49.708;18.568;2023-08-12T12:10:32;97797.75;;;32.63;38.52
31346;BME280;21711;49.708;18.568;2023-08-12T12:13:03;97799.31;;;32.64;36.73
31346;BME280;21711;49.708;18.568;2023-08-12T12:15:38;97789.50;;;32.24;39.32
31346;BME280;21711;49.708;18.568;2023-08-12T12:18:11;97793.97;;;32.07;36.72
31346;BME280;21711;49.708;18.568;2023-08-12T12:20:59;97787.22;;;32.19;38.58
31346;BME280;21711;49.708;18.568;2023-08-12T12:23:31;97790.53;;;31.46;35.91
31346;BME280;21711;49.708;18.568;2023-08-12T12:26:03;97790.97;;;31.38;40.09
31346;BME280;21711;49.708;18.568;2023-08-12T12:28:31;97787.00;;;31.49;40.88
31346;BME280;21711;49.708;18.568;2023-08-12T12:30:58;97787.75;;;31.54;41.97
31346;BME280;21711;49.708;18.568;2023-08-12T12:33:26;97788.53;;;31.51;43.16
31346;BME280;21711;49.708;18.568;2023-08-12T12:35:55;97786.19;;;31.56;41.22
31346;BME280;21711;49.708;18.568;2023-08-12T12:38:27;97777.31;;;31.34;40.36
31346;BME280;21711;49.708;18.568;2023-08-12T12:40:54;97782.28;;;31.50;44.29
31346;BME280;21711;49.708;18.568;2023-08-12T12:43:21;97782.06;;;31.22;41.99
31346;BME280;21711;49.708;18.568;2023-08-12T12:45:48;97781.72;;;31.13;43.07
31346;BME280;21711;49.708;18.568;2023-08-12T12:48:16;97778.63;;;31.11;42.81
31346;BME280;21711;49.708;18.568;2023-08-12T12:50:43;97769.41;;;30.76;40.58
31346;BME280;21711;49.708;18.568;2023-08-12T12:53:11;97768.66;;;30.71;42.44
31346;BME280;21711;49.708;18.568;2023-08-12T12:55:38;97763.09;;;30.97;41.91
31346;BME280;21711;49.708;18.568;2023-08-12T12:58:05;97765.38;;;31.09;41.82
31346;BME280;21711;49.708;18.568;2023-08-12T13:00:34;97765.06;;;30.89;40.71
31346;BME280;21711;49.708;18.568;2023-08-12T13:03:02;97764.69;;;30.83;42.57
31346;BME280;21711;49.708;18.568;2023-08-12T13:05:29;97753.03;;;30.79;40.74
31346;BME280;21711;49.708;18.568;2023-08-12T13:07:57;97753.03;;;30.83;43.37